createdAt,value
2018-07-09T00:02:10.652Z,40.27
2018-07-09T00:07:14.349Z,40.05
2018-07-09T00:12:18.041Z,40.39
2018-07-09T00:17:21.525Z,40.08
2018-07-09T00:22:24.978Z,40.09
2018-07-09T00:27:28.453Z,39.52
2018-07-09T00:32:31.939Z,39.75
2018-07-09T00:37:35.655Z,39.51
2018-07-09T00:42:39.127Z,39.23
2018-07-09T00:47:42.681Z,39.98
2018-07-09T00:52:46.740Z,39.54
2018-07-09T00:57:50.903Z,39.89
2018-07-09T01:02:54.402Z,40.14
2018-07-09T01:07:57.898Z,40.04
2018-07-09T01:13:01.394Z,39.61
2018-07-09T01:18:04.874Z,39.66
2018-07-09T01:23:08.594Z,40.23
2018-07-09T01:28:12.173Z,40.03
2018-07-09T01:33:16.055Z,39.89
2018-07-09T01:38:19.673Z,40.46
2018-07-09T01:43:23.189Z,39.97
2018-07-09T01:48:26.837Z,40.47
2018-07-09T01:53:30.509Z,39.98
2018-07-09T01:58:34.136Z,40.35
2018-07-09T02:03:37.625Z,40.70
2018-07-09T02:08:41.159Z,40.21
2018-07-09T02:13:45.077Z,40.17
2018-07-09T02:18:48.599Z,40.73
2018-07-09T02:23:52.062Z,40.64
2018-07-09T02:28:55.646Z,40.43
2018-07-09T02:33:59.198Z,40.51
2018-07-09T02:39:02.986Z,40.28
2018-07-09T02:44:06.705Z,40.06
2018-07-09T02:49:10.282Z,39.97
2018-07-09T02:54:14.478Z,39.85
2018-07-09T02:59:17.919Z,39.87
2018-07-09T03:04:21.585Z,39.82
2018-07-09T03:09:25.292Z,39.94
2018-07-09T03:14:28.820Z,39.92
2018-07-09T03:19:32.310Z,39.45
2018-07-09T03:24:36.010Z,39.23
2018-07-09T03:29:39.531Z,39.53
2018-07-09T03:34:43.180Z,38.96
2018-07-09T03:39:46.672Z,39.40
2018-07-09T03:44:50.405Z,39.47
2018-07-09T03:49:54.221Z,39.06
2018-07-09T03:54:57.930Z,39.24
2018-07-09T04:00:01.587Z,39.34
2018-07-09T04:05:05.304Z,38.57
2018-07-09T04:10:08.918Z,38.73
2018-07-09T04:15:12.649Z,38.65
2018-07-09T04:20:16.157Z,38.83
2018-07-09T04:25:19.673Z,38.78
2018-07-09T04:30:23.293Z,38.64
2018-07-09T04:35:26.978Z,38.27
2018-07-09T04:40:30.526Z,38.39
2018-07-09T04:45:34.024Z,38.46
2018-07-09T04:50:37.552Z,38.14
2018-07-09T04:55:41.276Z,38.71
2018-07-09T05:00:45.202Z,38.22
2018-07-09T05:05:48.651Z,38.23
2018-07-09T05:10:52.330Z,39.03
2018-07-09T05:15:56.047Z,38.60
2018-07-09T05:20:59.669Z,39.13
2018-07-09T05:26:03.188Z,39.26
2018-07-09T05:31:06.694Z,39.31
2018-07-09T05:36:10.217Z,39.14
2018-07-09T05:41:13.626Z,39.27
2018-07-09T05:46:17.046Z,38.76
2018-07-09T05:51:20.721Z,39.58
2018-07-09T05:56:24.140Z,39.24
2018-07-09T06:01:27.563Z,39.45
2018-07-09T06:06:31.072Z,38.96
2018-07-09T06:11:34.746Z,39.80
2018-07-09T06:16:38.339Z,39.55
2018-07-09T06:21:41.796Z,39.51
2018-07-09T06:26:45.252Z,39.50
2018-07-09T06:31:48.670Z,39.16
2018-07-09T06:36:52.244Z,39.87
2018-07-09T06:41:55.702Z,39.75
2018-07-09T06:46:59.458Z,39.68
2018-07-09T06:52:03.331Z,39.98
2018-07-09T06:57:06.794Z,39.59
2018-07-09T07:02:11.462Z,40.37
2018-07-09T07:07:15.326Z,40.23
2018-07-09T07:12:18.834Z,39.77
2018-07-09T07:17:22.246Z,39.77
2018-07-09T07:22:25.865Z,39.70
2018-07-09T07:27:29.518Z,39.37
2018-07-09T07:32:32.966Z,39.39
2018-07-09T07:37:36.425Z,39.06
2018-07-09T07:42:39.932Z,38.48
2018-07-09T07:47:43.401Z,39.48
2018-07-09T07:52:46.863Z,38.85
2018-07-09T07:57:50.487Z,39.37
2018-07-09T08:02:54.067Z,39.02
2018-07-09T08:07:57.557Z,39.86
2018-07-09T08:13:26.863Z,39.48
2018-07-09T08:18:04.582Z,39.68
2018-07-09T08:23:08.036Z,39.19
2018-07-09T08:28:11.497Z,38.33
2018-07-09T08:33:15.210Z,37.60
2018-07-09T08:38:18.614Z,37.33
2018-07-09T08:43:22.123Z,37.92
2018-07-09T08:48:25.632Z,37.49
2018-07-09T08:53:29.075Z,37.25
2018-07-09T08:58:32.537Z,37.45
2018-07-09T09:03:36.022Z,38.24
2018-07-09T09:08:39.458Z,37.99
2018-07-09T09:13:43.088Z,37.61
2018-07-09T09:18:46.537Z,38.00
2018-07-09T09:23:50.233Z,38.00
2018-07-09T09:28:53.963Z,36.83
2018-07-09T09:33:57.453Z,36.60
2018-07-09T09:39:00.923Z,37.51
2018-07-09T09:44:04.406Z,37.03
2018-07-09T09:49:07.855Z,37.14
2018-07-09T09:54:11.530Z,36.64
2018-07-09T09:59:15.026Z,36.32
2018-07-09T10:04:18.549Z,35.88
2018-07-09T10:09:22.059Z,35.99
2018-07-09T10:14:25.624Z,34.96
2018-07-09T10:19:29.120Z,34.88
2018-07-09T10:24:32.594Z,34.80
2018-07-09T10:29:36.105Z,34.71
2018-07-09T10:34:39.661Z,35.18
2018-07-09T10:39:43.031Z,34.91
2018-07-09T10:44:46.518Z,35.46
2018-07-09T10:49:50.104Z,35.42
2018-07-09T10:54:53.935Z,35.06
2018-07-09T10:59:57.645Z,35.27
2018-07-09T11:05:01.107Z,35.04
2018-07-09T11:10:04.580Z,34.42
2018-07-09T11:15:08.397Z,34.20
2018-07-09T11:20:11.912Z,33.98
2018-07-09T11:25:15.602Z,33.61
2018-07-09T11:30:19.046Z,33.19
2018-07-09T11:35:22.502Z,32.29
2018-07-09T11:40:25.936Z,32.51
2018-07-09T11:45:29.588Z,31.59
2018-07-09T11:50:33.110Z,29.97
2018-07-09T11:55:36.546Z,30.05
2018-07-09T12:00:39.974Z,28.92
2018-07-09T12:05:43.674Z,29.29
2018-07-09T12:10:47.454Z,29.77
2018-07-09T12:15:51.160Z,29.89
2018-07-09T12:20:54.613Z,29.70
2018-07-09T12:25:58.306Z,29.18
2018-07-09T12:31:01.914Z,29.38
2018-07-09T12:36:07.054Z,29.44
2018-07-09T12:41:10.497Z,29.88
2018-07-09T12:46:14.222Z,29.30
2018-07-09T12:51:17.736Z,29.29
2018-07-09T12:56:21.204Z,29.04
2018-07-09T13:01:24.739Z,30.03
2018-07-09T13:06:28.394Z,30.18
2018-07-09T13:11:32.177Z,29.46
2018-07-09T13:16:35.593Z,30.30
2018-07-09T13:21:39.820Z,30.47
2018-07-09T13:26:43.478Z,30.21
2018-07-09T13:31:47.422Z,30.74
2018-07-09T13:36:50.917Z,31.54
2018-07-09T13:41:54.428Z,31.98
2018-07-09T13:46:58.137Z,32.58
2018-07-09T13:52:02.125Z,32.39
2018-07-09T13:57:05.593Z,33.08
2018-07-09T14:02:09.702Z,33.18
2018-07-09T14:07:13.288Z,32.62
2018-07-09T14:12:17.081Z,33.38
2018-07-09T14:17:20.864Z,33.28
2018-07-09T14:22:24.377Z,33.36
2018-07-09T14:27:28.001Z,33.64
2018-07-09T14:32:31.705Z,33.94
2018-07-09T14:37:35.217Z,33.93
2018-07-09T14:42:39.172Z,33.87
2018-07-09T14:47:43.373Z,34.01
2018-07-09T14:52:47.086Z,33.74
2018-07-09T14:57:50.519Z,33.78
2018-07-09T15:02:54.150Z,34.24
2018-07-09T15:07:58.296Z,34.25
2018-07-09T15:13:01.846Z,34.55
2018-07-09T15:18:05.983Z,34.26
2018-07-09T15:23:09.382Z,34.87
2018-07-09T15:28:12.937Z,34.69
2018-07-09T15:33:16.721Z,34.55
2018-07-09T15:38:20.689Z,35.04
2018-07-09T15:44:03.268Z,35.15
2018-07-09T15:49:06.961Z,35.03
2018-07-09T15:54:10.654Z,35.14
2018-07-09T15:59:14.117Z,35.81
2018-07-09T16:04:17.841Z,35.23
2018-07-09T16:09:21.625Z,35.63
2018-07-09T16:14:25.124Z,36.03
2018-07-09T16:19:28.759Z,35.96
2018-07-09T16:24:32.380Z,36.88
2018-07-09T16:29:36.005Z,36.68
2018-07-09T16:34:40.023Z,36.75
2018-07-09T16:39:43.540Z,36.83
2018-07-09T16:44:47.503Z,37.04
2018-07-09T16:49:51.209Z,37.33
2018-07-09T16:54:54.851Z,37.02
2018-07-09T16:59:58.627Z,37.14
2018-07-09T17:05:03.022Z,37.43
2018-07-09T17:10:08.290Z,37.49
2018-07-09T17:15:11.854Z,36.94
2018-07-09T17:20:15.561Z,37.28
2018-07-09T17:25:19.155Z,36.78
2018-07-09T17:30:23.426Z,37.31
2018-07-09T17:35:26.970Z,36.75
2018-07-09T17:40:30.668Z,36.71
2018-07-09T17:45:34.195Z,37.04
2018-07-09T17:50:37.998Z,37.02
2018-07-09T17:55:41.757Z,37.01
2018-07-09T18:00:45.312Z,37.25
2018-07-09T18:05:48.929Z,36.80
2018-07-09T18:10:52.411Z,37.16
2018-07-09T18:15:56.027Z,36.66
2018-07-09T18:20:59.497Z,36.46
2018-07-09T18:26:03.217Z,36.97
2018-07-09T18:31:06.925Z,36.88
2018-07-09T18:36:10.529Z,37.08
2018-07-09T18:41:14.265Z,37.08
2018-07-09T18:46:18.444Z,36.54
2018-07-09T18:51:22.112Z,36.79
2018-07-09T18:56:25.826Z,37.26
2018-07-09T19:01:29.414Z,36.65
2018-07-09T19:06:45.266Z,37.06
2018-07-09T19:11:48.842Z,37.47
2018-07-09T19:18:12.109Z,36.84
2018-07-09T19:23:14.691Z,36.71
2018-07-09T19:28:17.165Z,36.65
2018-07-09T19:33:19.527Z,37.20
2018-07-09T19:38:21.921Z,37.26
2018-07-09T19:43:25.229Z,37.37
2018-07-09T19:48:27.585Z,37.12
2018-07-09T19:53:29.913Z,36.92
2018-07-09T19:58:32.270Z,37.00
2018-07-09T20:03:34.680Z,37.13
2018-07-09T20:08:42.321Z,37.46
2018-07-09T20:13:51.761Z,37.17
2018-07-09T20:18:54.129Z,37.01
2018-07-09T20:23:56.474Z,37.45
2018-07-09T20:28:59.006Z,37.37
2018-07-09T20:34:01.378Z,37.94
2018-07-09T20:39:06.026Z,37.46
2018-07-09T20:44:08.607Z,37.30
2018-07-09T20:49:10.986Z,37.64
2018-07-09T20:54:13.538Z,37.81
2018-07-09T20:59:15.925Z,37.21
2018-07-09T21:04:23.605Z,37.13
2018-07-09T21:09:26.597Z,37.56
2018-07-09T21:14:28.986Z,37.12
2018-07-09T21:19:31.351Z,37.22
2018-07-09T21:24:33.704Z,37.67
2018-07-09T21:29:36.105Z,37.50
2018-07-09T21:34:38.573Z,37.85
2018-07-09T21:39:41.464Z,37.82
2018-07-09T21:44:43.973Z,37.11
2018-07-09T21:49:47.361Z,37.76
2018-07-09T21:54:49.765Z,37.24
2018-07-09T21:59:52.327Z,37.86
2018-07-09T22:04:54.639Z,37.28
2018-07-09T22:09:57.056Z,37.62
2018-07-09T22:14:59.629Z,37.80
2018-07-09T22:20:02.069Z,37.76
2018-07-09T22:25:04.874Z,37.20
2018-07-09T22:30:07.260Z,37.69
2018-07-09T22:35:11.146Z,37.75
2018-07-09T22:40:14.954Z,37.14
2018-07-09T22:45:18.394Z,37.61
2018-07-09T22:50:22.265Z,37.33
2018-07-09T22:55:37.057Z,37.68
2018-07-09T23:00:40.778Z,37.39
2018-07-09T23:05:44.865Z,38.05
2018-07-09T23:14:02.534Z,37.55
2018-07-09T23:19:19.206Z,37.40
2018-07-09T23:24:21.569Z,37.36
2018-07-09T23:29:23.907Z,37.17
2018-07-09T23:34:26.205Z,37.44
2018-07-09T23:39:28.832Z,37.18
2018-07-09T23:44:31.177Z,37.60
2018-07-09T23:49:33.508Z,37.52
2018-07-09T23:54:36.031Z,37.14
2018-07-09T23:59:51.837Z,37.62
